aviador You're here:

KGLD Decoded Metar

GOODLAND in KS, USA
Report Time2017-06-25 01:53:00
UTC Time2017-06-25 02:04:10
Flight Rules vfr VFR
Wind110° at 07 kt
W.Decomp.*RWY 12: 6.6 kt HW 2.3 kt LCW
RWY 05: 4.4 kt HW 5.4 kt RCW
RWY 17: 2.5 kt HW 6.5 kt LCW
W.Rank110° ranks 28
Current wind is below 110° avg. (8.2)
Visibility9999 m
Phenomena:N/A
Clouds:Broken 070 Hf
Overcast 110 Hf
Expected CloudBase > 3,200 ft AGL from Temp-Dew spread
Ceiling7,000 ft
Temp21°C (ISA +13)
Dew Point13°C (60% RH)
AAT19.4°C
QNH1024 hPa
Density Alt5,030 ft
Elevation3,652 ft
Report Wrong Elevation
Raw Report
KGLD 250153Z AUTO 11007KT 10SM BKN070 OVC110 21/13 A3024 RMK AO2
SLP210 T02060128=

Extra information for KGLD:More info

Metar Taf Metar & Taf Last 4 Metars F.Rules Stats Wind Profile Meteogram Temp Stats Airport Information Weather charts Add Link Nearby VenuesMetar ALERT Operation Metar Decoded Social comments

AIRNAV info for KGLD